Sanborn, NY (14132)

10:24 AM EDT on September 20, 2014 (GMT -0400)
Joanne Dr. | Change Station
CLOSE
Current Station
Personal Weather Station
Location: Sanborn, NY
Elevation: 643 ft
Nearby Weather Stations

Elev 643 ft 43.14 °N, 78.88 °W | Updated 0 second ago

Mostly Cloudy
Mostly Cloudy
69.1 °F
Feels Like 69.1 °F
N
0.0
Wind Variable Wind from North
Gusts 0.0 mph

Today
High -- | Low -- °F
--% Chance of Precip.
Yesterday
High -- | Low -- °F
Precip. -- in
7:00 AM 7:16 PM
Waning Crescent, 12% visible
Pressure 30.01 in
Visibility 10.0 miles
Clouds Mostly Cloudy 2600 ft
Mostly Cloudy 15000 ft
Dew Point 60 °F
Humidity 74%
Rainfall 0.00 in
Snow Depth Not available.
UV 2 out of 12
Pollen 4.70 out of 12
Air Quality Not available.
Flu Activity Not available.
SPECI KIAG 201421Z 21018G26KT 10SM BKN026 BKN150 21/14 A3001 RMK AO2 PK WND 22026/1419 T02060144

More Conditions Fewer Conditions

Pressure 30.01 in
Visibility 10.0 miles
Clouds Mostly Cloudy 2600 ft
Mostly Cloudy 15000 ft
Dew Point 60 °F
Humidity 74%
Rainfall 0.00 in
Snow Depth Not available.
UV 2 out of 12
Pollen 4.70 out of 12
Air Quality Not available.
Flu Activity Not available.
SPECI KIAG 201421Z 21018G26KT 10SM BKN026 BKN150 21/14 A3001 RMK AO2 PK WND 22026/1419 T02060144

More Conditions Fewer Conditions

10-Day Weather Forecast

Almanac

Astronomy

Sep. 20, 2014 Rise Set
Actual Time 7:00 AM EDT 7:16 PM EDT
Civil Twilight 6:32 AM EDT 7:44 PM EDT
Nautical Twilight 5:58 AM EDT 8:18 PM EDT
Astronomical Twilight 5:24 AM EDT 8:52 PM EDT
Moon 3:33 AM EDT 5:22 PM EDT
Length of Visible Light 13h 12m
Length of Day
12h 15m
Tomorrow will be 2m 56s shorter.
Waning Crescent, 12% of the Moon is Illuminated
Today
Waning Crescent
Sep 24
New
Oct 1
First Quarter
Oct 8
Full
Oct 15
Last Quarter

Today's Extremes

State Highs State Lows

Community

WunderPhotos

Upload Photos

1,754,871 photos uploaded!

Nearby

Air Quality

  Air Quality AQ Index Pollutant
Saturday Good
OZONE
Saturday Good
PM2.5
Sunday Good
PM2.5
Sunday Good
OZONE
Monday Good
PM2.5
Monday Good
OZONE

Snow Depth

Station Depth Elevation
No new snow has been reported.

Earthquake Activity

City Distance Mag. Time & Date
No recent earthquake activity has been reported nearby.
Minimum magnitude displayed is 2.5.

Coastal Water Temperatures

Place Temperature
Buffalo, NY 66.9 °F

Nearby Weather Stations